Time,TemperatureF,DewpointF,PressureIn,WindDirection,WindDirectionDegrees,WindSpeedMPH,WindSpeedGustMPH,Humidity,HourlyPrecipIn,Conditions,Clouds,dailyrainin,SoftwareType,DateUTC
2013-05-21 00:00:00,64.1,62.9,29.92,ESE,115,0.0,0.0,96,0.00,,,0.00,VWS V14.01,2013-05-21 04:00:00,
2013-05-21 00:01:00,64.1,62.9,29.92,ESE,115,0.0,0.0,96,0.00,,BKN250,0.00,VWS V14.01,2013-05-21 04:01:00,
2013-05-21 00:10:00,64.1,62.9,29.92,ESE,115,0.0,0.0,96,0.00,,BKN250,0.00,VWS V14.01,2013-05-21 04:10:00,
2013-05-21 00:20:00,64.2,63.3,29.92,ESE,115,0.0,0.0,97,0.00,,BKN250,0.00,VWS V14.01,2013-05-21 04:20:00,
2013-05-21 00:30:00,63.9,63.0,29.92,ESE,115,0.0,0.0,97,0.00,,BKN250,0.00,VWS V14.01,2013-05-21 04:30:00,
2013-05-21 00:40:00,63.7,62.8,29.93,ESE,115,0.0,0.0,97,0.00,,BKN250,0.00,VWS V14.01,2013-05-21 04:40:00,
2013-05-21 00:50:00,63.4,62.5,29.92,ESE,115,0.0,0.0,97,0.00,,BKN250,0.00,VWS V14.01,2013-05-21 04:50:00,
2013-05-21 01:00:00,63.3,62.4,29.92,ESE,115,0.0,0.0,97,0.00,,,0.00,VWS V14.01,2013-05-21 05:00:00,
2013-05-21 01:01:00,63.3,62.4,29.92,ESE,115,0.0,0.0,97,0.00,,BKN250,0.00,VWS V14.01,2013-05-21 05:01:00,
2013-05-21 01:10:00,63.1,62.5,29.92,ESE,115,0.0,0.0,98,0.00,,BKN250,0.00,VWS V14.01,2013-05-21 05:10:00,
2013-05-21 01:20:00,62.9,62.3,29.92,ESE,115,0.0,0.0,98,0.00,,BKN250,0.00,VWS V14.01,2013-05-21 05:20:00,
2013-05-21 01:30:00,62.7,62.1,29.92,SW,225,0.0,0.0,98,0.00,,BKN250,0.00,VWS V14.01,2013-05-21 05:30:00,
2013-05-21 01:40:00,62.4,61.8,29.91,SW,226,0.0,0.0,98,0.00,,BKN250,0.00,VWS V14.01,2013-05-21 05:40:00,
2013-05-21 01:50:00,62.2,61.6,29.90,SW,226,0.0,0.0,98,0.00,,BKN250,0.00,VWS V14.01,2013-05-21 05:50:00,
2013-05-21 02:00:00,62.3,62.0,29.90,SW,226,0.0,0.0,99,0.00,,,0.00,VWS V14.01,2013-05-21 06:00:00,
2013-05-21 02:01:00,62.3,62.0,29.90,SW,226,0.0,0.0,99,0.00,,BKN250,0.00,VWS V14.01,2013-05-21 06:01:00,
2013-05-21 02:10:00,62.4,62.1,29.90,SSE,159,0.0,0.0,99,0.00,,,0.00,VWS V14.01,2013-05-21 06:10:00,
2013-05-21 02:20:00,62.1,61.8,29.89,SSE,160,0.0,0.0,99,0.00,,,0.00,VWS V14.01,2013-05-21 06:20:00,
2013-05-21 02:30:00,61.9,61.3,29.88,SE,133,0.0,0.0,98,0.00,,,0.00,VWS V14.01,2013-05-21 06:30:00,
2013-05-21 02:31:00,61.9,61.3,29.88,SE,133,0.0,0.0,98,0.00,,,0.00,VWS V14.01,2013-05-21 06:31:00,
2013-05-21 02:40:00,61.4,60.8,29.89,South,183,0.0,0.0,98,0.00,,,0.00,VWS V14.01,2013-05-21 06:40:00,
2013-05-21 02:50:00,61.3,61.0,29.88,South,183,0.0,0.0,99,0.00,,,0.00,VWS V14.01,2013-05-21 06:50:00,
2013-05-21 03:00:00,60.8,60.5,29.88,South,183,0.0,0.0,99,0.00,,,0.00,VWS V14.01,2013-05-21 07:00:00,
2013-05-21 03:10:00,60.5,60.2,29.88,South,181,0.0,0.0,99,0.00,,,0.00,VWS V14.01,2013-05-21 07:10:00,
2013-05-21 03:20:00,60.1,59.8,29.88,South,183,0.0,0.0,99,0.00,,,0.00,VWS V14.01,2013-05-21 07:20:00,
2013-05-21 03:30:00,59.9,59.6,29.88,South,181,0.0,0.0,99,0.00,,,0.00,VWS V14.01,2013-05-21 07:30:00,
2013-05-21 03:40:00,59.7,59.4,29.88,South,181,0.0,0.0,99,0.00,,,0.00,VWS V14.01,2013-05-21 07:40:00,
2013-05-21 03:50:00,59.7,59.4,29.88,South,181,0.0,0.0,99,0.00,,,0.00,VWS V14.01,2013-05-21 07:50:00,
2013-05-21 04:00:00,59.5,59.2,29.88,South,181,0.0,0.0,99,0.00,,,0.00,VWS V14.01,2013-05-21 08:00:00,
2013-05-21 04:01:00,59.5,59.2,29.88,South,181,0.0,0.0,99,0.00,,,0.00,VWS V14.01,2013-05-21 08:01:00,
2013-05-21 04:10:00,59.4,59.1,29.88,South,181,0.0,0.0,99,0.00,,,0.00,VWS V14.01,2013-05-21 08:10:00,
2013-05-21 04:20:00,59.2,58.9,29.88,South,181,0.0,0.0,99,0.00,,,0.00,VWS V14.01,2013-05-21 08:20:00,
2013-05-21 04:30:00,59.1,58.8,29.88,South,181,0.0,0.0,99,0.00,,,0.00,VWS V14.01,2013-05-21 08:30:00,
2013-05-21 04:31:00,59.1,58.8,29.88,South,181,0.0,0.0,99,0.00,,,0.00,VWS V14.01,2013-05-21 08:31:00,
2013-05-21 04:40:00,58.9,58.6,29.89,South,183,0.0,0.0,99,0.00,,,0.00,VWS V14.01,2013-05-21 08:40:00,
2013-05-21 04:50:00,58.8,58.5,29.89,South,181,0.0,0.0,99,0.00,,,0.00,VWS V14.01,2013-05-21 08:50:00,
2013-05-21 05:00:00,58.5,58.2,29.89,South,181,0.0,0.0,99,0.00,,,0.00,VWS V14.01,2013-05-21 09:00:00,
2013-05-21 05:10:00,58.4,58.1,29.90,South,181,0.0,0.0,99,0.00,,,0.00,VWS V14.01,2013-05-21 09:10:00,
2013-05-21 05:20:00,58.3,58.0,29.90,South,181,0.0,0.0,99,0.00,,,0.00,VWS V14.01,2013-05-21 09:20:00,
2013-05-21 05:30:00,58.4,58.1,29.89,South,181,0.0,0.0,99,0.00,,,0.00,VWS V14.01,2013-05-21 09:30:00,
2013-05-21 05:40:00,58.3,58.0,29.89,South,181,0.0,0.0,99,0.00,,,0.00,VWS V14.01,2013-05-21 09:40:00,
2013-05-21 05:50:00,58.3,58.0,29.90,South,181,0.0,0.0,99,0.00,,,0.00,VWS V14.01,2013-05-21 09:50:00,
2013-05-21 06:00:00,58.2,57.9,29.90,South,181,0.0,0.0,99,0.00,,,0.00,VWS V14.01,2013-05-21 10:00:00,
2013-05-21 06:01:00,58.2,57.9,29.90,South,181,0.0,0.0,99,0.00,,,0.00,VWS V14.01,2013-05-21 10:01:00,
2013-05-21 06:10:00,58.3,58.3,29.89,South,173,0.0,0.0,100,0.00,,,0.00,VWS V14.01,2013-05-21 10:10:00,
2013-05-21 06:20:00,58.6,58.6,29.88,SSE,152,0.0,0.0,100,0.00,,,0.00,VWS V14.01,2013-05-21 10:20:00,
2013-05-21 06:30:00,58.7,58.7,29.89,SSE,156,0.0,0.0,100,0.00,,,0.00,VWS V14.01,2013-05-21 10:30:00,
2013-05-21 06:40:00,59.0,59.0,29.90,SSE,156,0.0,0.0,100,0.00,,,0.00,VWS V14.01,2013-05-21 10:40:00,
2013-05-21 06:50:00,59.4,59.4,29.89,SE,138,0.0,0.0,100,0.00,,,0.00,VWS V14.01,2013-05-21 10:50:00,
2013-05-21 07:00:00,60.0,60.0,29.89,SE,139,0.0,0.0,100,0.00,,,0.00,VWS V14.01,2013-05-21 11:00:00,
2013-05-21 07:01:00,60.0,60.0,29.89,SE,139,0.0,0.0,100,0.00,,,0.00,VWS V14.01,2013-05-21 11:01:00,
2013-05-21 07:10:00,60.6,60.6,29.89,SE,139,0.0,0.0,100,0.00,,,0.00,VWS V14.01,2013-05-21 11:10:00,
2013-05-21 07:20:00,61.0,61.0,29.89,SE,138,0.0,0.0,100,0.00,,,0.00,VWS V14.01,2013-05-21 11:20:00,
2013-05-21 07:30:00,60.9,60.9,29.90,SW,229,0.0,0.0,100,0.00,,,0.00,VWS V14.01,2013-05-21 11:30:00,
2013-05-21 07:31:00,60.9,60.9,29.90,SW,229,0.0,0.0,100,0.00,,,0.00,VWS V14.01,2013-05-21 11:31:00,
2013-05-21 07:40:00,62.1,62.1,29.89,SE,138,0.0,0.0,100,0.00,,,0.00,VWS V14.01,2013-05-21 11:40:00,
2013-05-21 07:50:00,63.4,63.4,29.90,SE,138,0.0,0.0,100,0.00,,,0.00,VWS V14.01,2013-05-21 11:50:00,
2013-05-21 08:00:00,64.8,64.8,29.90,SE,139,0.0,0.0,100,0.00,,,0.00,VWS V14.01,2013-05-21 12:00:00,
2013-05-21 08:10:00,65.9,65.9,29.90,SW,214,0.0,2.0,100,0.00,,,0.00,VWS V14.01,2013-05-21 12:10:00,
2013-05-21 08:20:00,67.3,67.0,29.90,SW,218,0.0,0.0,99,0.00,,,0.00,VWS V14.01,2013-05-21 12:20:00,
2013-05-21 08:30:00,68.7,67.8,29.90,SSW,195,0.0,0.0,97,0.00,,,0.00,VWS V14.01,2013-05-21 12:30:00,
2013-05-21 08:40:00,70.0,67.9,29.90,SSE,157,0.0,3.0,93,0.00,,,0.00,VWS V14.01,2013-05-21 12:40:00,
2013-05-21 08:50:00,70.8,67.7,29.89,SSW,208,0.0,3.0,90,0.00,,,0.00,VWS V14.01,2013-05-21 12:50:00,
2013-05-21 09:00:00,71.8,67.7,29.89,SW,217,1.0,3.0,87,0.00,,,0.00,VWS V14.01,2013-05-21 13:00:00,
2013-05-21 09:01:00,71.8,67.7,29.89,SW,217,1.0,3.0,87,0.00,,,0.00,VWS V14.01,2013-05-21 13:01:00,
2013-05-21 09:10:00,72.8,68.4,29.89,WSW,239,2.0,4.0,86,0.00,,,0.00,VWS V14.01,2013-05-21 13:10:00,
2013-05-21 09:20:00,73.5,68.7,29.89,WSW,238,0.0,4.0,85,0.00,,,0.00,VWS V14.01,2013-05-21 13:20:00,
2013-05-21 09:30:00,74.4,69.3,29.88,ENE,69,1.0,4.0,84,0.00,,,0.00,VWS V14.01,2013-05-21 13:30:00,
2013-05-21 09:40:00,75.5,70.0,29.88,WSW,240,0.0,3.0,83,0.00,,,0.00,VWS V14.01,2013-05-21 13:40:00,
2013-05-21 09:50:00,76.8,70.5,29.89,South,169,0.0,3.0,81,0.00,,,0.00,VWS V14.01,2013-05-21 13:50:00,
2013-05-21 10:00:00,77.5,70.5,29.88,SSW,207,2.0,4.0,79,0.00,,,0.00,VWS V14.01,2013-05-21 14:00:00,
2013-05-21 10:01:00,77.5,70.5,29.88,SSW,207,2.0,4.0,79,0.00,,,0.00,VWS V14.01,2013-05-21 14:01:00,
2013-05-21 10:10:00,78.2,70.4,29.88,SE,129,1.0,3.0,77,0.00,,SCT070,0.00,VWS V14.01,2013-05-21 14:10:00,
2013-05-21 10:20:00,79.2,70.2,29.88,SSE,155,0.0,3.0,74,0.00,,SCT070,0.00,VWS V14.01,2013-05-21 14:20:00,
2013-05-21 10:30:00,80.0,70.6,29.87,South,181,0.0,4.0,73,0.00,,SCT070,0.00,VWS V14.01,2013-05-21 14:30:00,
2013-05-21 10:40:00,80.4,69.7,29.87,West,264,2.0,5.0,70,0.00,,SCT070,0.00,VWS V14.01,2013-05-21 14:40:00,
2013-05-21 10:50:00,79.7,69.5,29.86,West,280,1.0,5.0,71,0.00,,SCT070,0.00,VWS V14.01,2013-05-21 14:50:00,
2013-05-21 11:00:00,81.0,70.3,29.86,WNW,295,0.0,4.0,70,0.00,,,0.00,VWS V14.01,2013-05-21 15:00:00,
2013-05-21 11:01:00,81.0,70.3,29.86,WNW,295,0.0,4.0,70,0.00,,SCT070,0.00,VWS V14.01,2013-05-21 15:01:00,
2013-05-21 11:10:00,81.6,70.0,29.86,NW,307,2.0,3.0,68,0.00,,SCT065,0.00,VWS V14.01,2013-05-21 15:10:00,
2013-05-21 11:20:00,82.2,70.2,29.85,NNE,25,2.0,3.0,67,0.00,,SCT065,0.00,VWS V14.01,2013-05-21 15:20:00,
2013-05-21 11:30:00,82.2,69.7,29.85,WNW,285,2.0,7.0,66,0.00,,,0.00,VWS V14.01,2013-05-21 15:30:00,
2013-05-21 11:31:00,82.2,69.7,29.85,WNW,285,2.0,7.0,66,0.00,,SCT065,0.00,VWS V14.01,2013-05-21 15:31:00,
2013-05-21 11:40:00,82.8,69.8,29.85,WSW,240,1.0,5.0,65,0.00,,SCT065,0.00,VWS V14.01,2013-05-21 15:40:00,
2013-05-21 11:50:00,83.9,70.4,29.84,SW,235,3.0,3.0,64,0.00,,SCT065,0.00,VWS V14.01,2013-05-21 15:50:00,
2013-05-21 12:00:00,84.2,70.7,29.84,WSW,248,0.0,4.0,64,0.00,,SCT065,0.00,VWS V14.01,2013-05-21 16:00:00,
2013-05-21 12:10:00,84.5,70.1,29.83,WNW,285,0.0,4.0,62,0.00,,SCT070,0.00,VWS V14.01,2013-05-21 16:10:00,
2013-05-21 12:20:00,84.4,69.0,29.83,West,281,1.0,7.0,60,0.00,,SCT070,0.00,VWS V14.01,2013-05-21 16:20:00,
2013-05-21 12:30:00,85.2,70.2,29.83,SE,137,2.0,4.0,61,0.00,,SCT070,0.00,VWS V14.01,2013-05-21 16:30:00,
2013-05-21 12:40:00,84.5,69.1,29.82,NW,314,0.0,10.0,60,0.00,,SCT070,0.00,VWS V14.01,2013-05-21 16:40:00,
2013-05-21 12:50:00,85.4,70.4,29.82,NW,323,1.0,2.0,61,0.00,,SCT070,0.00,VWS V14.01,2013-05-21 16:50:00,
2013-05-21 13:00:00,84.1,68.2,29.82,NW,319,0.0,4.0,59,0.00,,,0.00,VWS V14.01,2013-05-21 17:00:00,
2013-05-21 13:01:00,84.1,68.2,29.82,NW,319,0.0,4.0,59,0.00,,SCT070,0.00,VWS V14.01,2013-05-21 17:01:00,
2013-05-21 13:10:00,84.7,68.8,29.82,SW,233,2.0,3.0,59,0.00,,SCT046,0.00,VWS V14.01,2013-05-21 17:10:00,
2013-05-21 13:20:00,86.0,70.0,29.81,West,259,2.0,4.0,59,0.00,,SCT046,0.00,VWS V14.01,2013-05-21 17:20:00,
2013-05-21 13:30:00,86.7,69.7,29.81,SSW,195,2.0,5.0,57,0.00,,SCT046,0.00,VWS V14.01,2013-05-21 17:30:00,
2013-05-21 13:40:00,85.9,69.4,29.81,WSW,239,1.0,7.0,58,0.00,,SCT046,0.00,VWS V14.01,2013-05-21 17:40:00,
2013-05-21 13:50:00,85.4,70.4,29.81,SE,134,1.0,5.0,61,0.00,,SCT046,0.00,VWS V14.01,2013-05-21 17:50:00,
2013-05-21 14:00:00,86.3,70.8,29.80,SSE,151,0.0,3.0,60,0.00,,,0.00,VWS V14.01,2013-05-21 18:00:00,
2013-05-21 14:01:00,86.3,70.8,29.80,SSE,151,0.0,3.0,60,0.00,,SCT046,0.00,VWS V14.01,2013-05-21 18:01:00,
2013-05-21 14:10:00,87.7,70.6,29.80,SSE,155,1.0,4.0,57,0.00,,BKN100,0.00,VWS V14.01,2013-05-21 18:10:00,
2013-05-21 14:20:00,88.2,69.5,29.79,WSW,257,0.0,6.0,54,0.00,,BKN100,0.00,VWS V14.01,2013-05-21 18:20:00,
2013-05-21 14:30:00,86.6,67.4,29.79,SW,224,2.0,8.0,53,0.00,,,0.00,VWS V14.01,2013-05-21 18:30:00,
2013-05-21 14:31:00,86.6,67.4,29.79,SW,224,2.0,8.0,53,0.00,,BKN100,0.00,VWS V14.01,2013-05-21 18:31:00,
2013-05-21 14:40:00,86.6,68.5,29.78,NNW,337,1.0,4.0,55,0.00,,BKN100,0.00,VWS V14.01,2013-05-21 18:40:00,
2013-05-21 14:50:00,88.0,68.7,29.78,SW,224,3.0,5.0,53,0.00,,BKN100,0.00,VWS V14.01,2013-05-21 18:50:00,
2013-05-21 15:00:00,88.8,70.6,29.78,West,263,1.0,5.0,55,0.00,,,0.00,VWS V14.01,2013-05-21 19:00:00,
2013-05-21 15:01:00,88.8,70.6,29.78,West,263,1.0,5.0,55,0.00,,BKN100,0.00,VWS V14.01,2013-05-21 19:01:00,
2013-05-21 15:10:00,89.3,69.9,29.78,SSW,203,1.0,6.0,53,0.00,,BKN110,0.00,VWS V14.01,2013-05-21 19:10:00,
2013-05-21 15:20:00,89.5,69.0,29.77,WSW,242,3.0,6.0,51,0.00,,BKN110,0.00,VWS V14.01,2013-05-21 19:20:00,
2013-05-21 15:30:00,87.6,68.9,29.77,West,264,1.0,9.0,54,0.00,,,0.00,VWS V14.01,2013-05-21 19:30:00,
2013-05-21 15:32:00,87.6,68.9,29.77,West,264,1.0,9.0,54,0.00,,BKN110,0.00,VWS V14.01,2013-05-21 19:32:00,
2013-05-21 15:40:00,87.8,69.1,29.77,SSW,203,0.0,5.0,54,0.00,,BKN110,0.00,VWS V14.01,2013-05-21 19:40:00,
2013-05-21 15:50:00,87.3,69.2,29.76,South,173,1.0,4.0,55,0.00,,,0.00,VWS V14.01,2013-05-21 19:50:00,
2013-05-21 15:51:00,87.3,69.2,29.76,South,173,1.0,4.0,55,0.00,,BKN110,0.00,VWS V14.01,2013-05-21 19:51:00,
2013-05-21 16:00:00,87.4,69.3,29.76,SW,225,2.0,8.0,55,0.00,,---,0.00,VWS V14.01,2013-05-21 20:00:00,
2013-05-21 16:10:00,87.5,69.9,29.76,SW,228,1.0,6.0,56,0.00,,,0.00,VWS V14.01,2013-05-21 20:10:00,
2013-05-21 16:11:00,87.5,69.9,29.76,SW,228,1.0,6.0,56,0.00,,BKN110,0.00,VWS V14.01,2013-05-21 20:11:00,
2013-05-21 16:20:00,87.4,69.8,29.76,WSW,242,2.0,5.0,56,0.00,,BKN110,0.00,VWS V14.01,2013-05-21 20:20:00,
2013-05-21 16:21:00,87.4,69.8,29.76,WSW,242,2.0,5.0,56,0.00,,BKN110,0.00,VWS V14.01,2013-05-21 20:21:00,
2013-05-21 16:30:00,87.2,69.1,29.75,WSW,248,2.0,6.0,55,0.00,,---,0.00,VWS V14.01,2013-05-21 20:30:00,
2013-05-21 16:40:00,86.6,70.1,29.75,SW,214,0.0,6.0,58,0.00,,BKN110,0.00,VWS V14.01,2013-05-21 20:40:00,
2013-05-21 16:50:00,86.4,69.4,29.75,SSW,205,0.0,5.0,57,0.00,,,0.00,VWS V14.01,2013-05-21 20:50:00,
2013-05-21 16:51:00,86.4,69.4,29.75,SSW,205,0.0,5.0,57,0.00,,BKN110,0.00,VWS V14.01,2013-05-21 20:51:00,
2013-05-21 17:00:00,86.3,68.8,29.74,SW,225,1.0,6.0,56,0.00,,---,0.00,VWS V14.01,2013-05-21 21:00:00,
2013-05-21 17:10:00,85.9,68.9,29.75,SSW,204,1.0,6.0,57,0.00,,,0.00,VWS V14.01,2013-05-21 21:10:00,
2013-05-21 17:11:00,85.9,68.9,29.75,SSW,204,1.0,6.0,57,0.00,,OVC090,0.00,VWS V14.01,2013-05-21 21:11:00,
2013-05-21 17:20:00,84.9,69.0,29.75,SW,233,3.0,6.0,59,0.00,,,0.00,VWS V14.01,2013-05-21 21:20:00,
2013-05-21 17:21:00,84.9,69.0,29.75,SW,233,3.0,6.0,59,0.00,,OVC090,0.00,VWS V14.01,2013-05-21 21:21:00,
2013-05-21 17:30:00,84.5,68.6,29.74,SW,225,1.0,4.0,59,0.00,,---,0.00,VWS V14.01,2013-05-21 21:30:00,
2013-05-21 17:40:00,84.0,68.6,29.76,WNW,294,0.0,4.0,60,0.00,,,0.00,VWS V14.01,2013-05-21 21:40:00,
2013-05-21 17:41:00,84.0,68.6,29.76,WNW,294,0.0,4.0,60,0.00,,OVC090,0.00,VWS V14.01,2013-05-21 21:41:00,
2013-05-21 17:50:00,83.5,68.2,29.75,SW,228,0.0,3.0,60,0.00,,,0.00,VWS V14.01,2013-05-21 21:50:00,
2013-05-21 17:51:00,83.5,68.2,29.75,SW,228,0.0,3.0,60,0.00,,OVC090,0.00,VWS V14.01,2013-05-21 21:51:00,
2013-05-21 18:00:00,82.9,68.6,29.75,SW,225,0.0,2.0,62,0.00,,---,0.00,VWS V14.01,2013-05-21 22:00:00,
2013-05-21 18:10:00,82.4,68.1,29.74,SW,215,0.0,2.0,62,0.00,,OVC090,0.00,VWS V14.01,2013-05-21 22:10:00,
2013-05-21 18:20:00,81.8,68.4,29.76,WSW,245,1.0,2.0,64,0.00,,,0.00,VWS V14.01,2013-05-21 22:20:00,
2013-05-21 18:30:00,81.0,70.3,29.78,NE,45,1.0,6.0,70,0.00,,---,0.00,VWS V14.01,2013-05-21 22:30:00,
2013-05-21 18:40:00,80.4,70.6,29.77,NW,322,0.0,5.0,72,0.00,,OVC090,0.00,VWS V14.01,2013-05-21 22:40:00,
2013-05-21 18:50:00,79.4,71.2,29.79,West,271,1.0,3.0,76,0.02,,OVC090,0.02,VWS V14.01,2013-05-21 22:50:00,
2013-05-21 19:00:00,74.9,69.7,29.81,West,269,0.0,1.0,84,0.08,,,0.08,VWS V14.01,2013-05-21 23:00:00,
2013-05-21 19:01:00,74.9,69.7,29.81,West,269,0.0,1.0,84,0.08,,OVC090,0.08,VWS V14.01,2013-05-21 23:01:00,
2013-05-21 19:10:00,71.1,66.7,29.80,WSW,252,1.0,5.0,86,0.28,,,0.28,VWS V14.01,2013-05-21 23:10:00,
2013-05-21 19:20:00,69.0,65.9,29.78,SSW,200,1.0,3.0,90,0.37,,,0.37,VWS V14.01,2013-05-21 23:20:00,
2013-05-21 19:30:00,68.2,66.1,29.80,North,353,0.0,2.0,93,0.37,,,0.37,VWS V14.01,2013-05-21 23:30:00,
2013-05-21 19:40:00,67.7,65.9,29.80,NNE,19,0.0,0.0,94,0.38,,,0.38,VWS V14.01,2013-05-21 23:40:00,
2013-05-21 19:50:00,68.1,66.9,29.78,East,96,0.0,0.0,96,0.49,,,0.49,VWS V14.01,2013-05-21 23:50:00,
2013-05-21 20:00:00,68.4,67.5,29.79,West,274,0.0,1.0,97,0.51,,,0.53,VWS V14.01,2013-05-22 00:00:00,
2013-05-21 20:10:00,68.7,68.1,29.79,WNW,302,0.0,3.0,98,0.45,,BKN110,0.53,VWS V14.01,2013-05-22 00:10:00,
2013-05-21 20:20:00,69.2,68.6,29.79,NW,325,0.0,0.0,98,0.25,,BKN110,0.53,VWS V14.01,2013-05-22 00:20:00,
2013-05-21 20:30:00,69.6,69.0,29.78,NW,325,0.0,0.0,98,0.16,,,0.53,VWS V14.01,2013-05-22 00:30:00,
2013-05-21 20:31:00,69.6,69.0,29.78,NW,325,0.0,0.0,98,0.16,,BKN110,0.53,VWS V14.01,2013-05-22 00:31:00,
2013-05-21 20:40:00,69.8,69.2,29.78,NW,323,0.0,0.0,98,0.16,,BKN110,0.53,VWS V14.01,2013-05-22 00:40:00,
2013-05-21 20:50:00,69.9,69.6,29.79,NW,321,0.0,0.0,99,0.15,,BKN110,0.53,VWS V14.01,2013-05-22 00:50:00,
2013-05-21 21:00:00,69.9,69.6,29.80,West,261,0.0,0.0,99,0.04,,BKN110,0.53,VWS V14.01,2013-05-22 01:00:00,
2013-05-21 21:10:00,70.0,69.7,29.80,West,262,0.0,0.0,99,0.00,,OVC300,0.53,VWS V14.01,2013-05-22 01:10:00,
2013-05-21 21:20:00,70.0,69.7,29.79,East,90,0.0,2.0,99,0.00,,,0.53,VWS V14.01,2013-05-22 01:20:00,
2013-05-21 21:30:00,70.0,69.7,29.79,East,90,0.0,0.0,99,0.00,,,0.53,VWS V14.01,2013-05-22 01:30:00,
2013-05-21 21:40:00,69.9,69.6,29.79,East,90,0.0,0.0,99,0.00,,,0.53,VWS V14.01,2013-05-22 01:40:00,
2013-05-21 21:50:00,69.8,69.5,29.80,East,90,0.0,2.0,99,0.00,,,0.53,VWS V14.01,2013-05-22 01:50:00,
2013-05-21 22:00:00,69.7,69.4,29.80,ENE,68,1.0,4.0,99,0.00,,,0.53,VWS V14.01,2013-05-22 02:00:00,
2013-05-21 22:10:00,69.5,68.9,29.79,ENE,68,1.0,3.0,98,0.00,,,0.53,VWS V14.01,2013-05-22 02:10:00,
2013-05-21 22:20:00,68.6,67.7,29.79,ENE,68,2.0,6.0,97,0.00,,,0.53,VWS V14.01,2013-05-22 02:20:00,
2013-05-21 22:30:00,68.0,67.4,29.79,ENE,68,1.0,4.0,98,0.00,,,0.53,VWS V14.01,2013-05-22 02:30:00,
2013-05-21 22:40:00,67.2,66.6,29.79,ENE,68,3.0,6.0,98,0.00,,,0.53,VWS V14.01,2013-05-22 02:40:00,
2013-05-21 22:50:00,66.8,66.2,29.80,ENE,68,2.0,5.0,98,0.00,,,0.53,VWS V14.01,2013-05-22 02:50:00,
2013-05-21 23:00:00,66.6,66.0,29.81,ENE,68,2.0,5.0,98,0.00,,,0.53,VWS V14.01,2013-05-22 03:00:00,
2013-05-21 23:10:00,66.5,65.9,29.81,ENE,68,2.0,8.0,98,0.00,,,0.53,VWS V14.01,2013-05-22 03:10:00,
2013-05-21 23:20:00,66.5,66.2,29.82,ENE,68,1.0,4.0,99,0.00,,,0.53,VWS V14.01,2013-05-22 03:20:00,
2013-05-21 23:30:00,66.3,66.0,29.83,ENE,68,1.0,5.0,99,0.00,,,0.53,VWS V14.01,2013-05-22 03:30:00,
2013-05-21 23:40:00,65.9,65.3,29.83,ENE,68,2.0,6.0,98,0.00,,,0.53,VWS V14.01,2013-05-22 03:40:00,
2013-05-21 23:50:00,65.2,64.6,29.82,ENE,68,2.0,5.0,98,0.00,,,0.53,VWS V14.01,2013-05-22 03:50:00,